createdAt,value
2022-12-27T00:04:10.875Z,5.28
2022-12-27T00:06:37.775Z,5.07
2022-12-27T00:09:04.907Z,4.63
2022-12-27T00:11:31.798Z,4.88
2022-12-27T00:14:04.481Z,5.15
2022-12-27T00:16:31.730Z,4.55
2022-12-27T00:18:58.733Z,3.97
2022-12-27T00:21:25.418Z,4.22
2022-12-27T00:23:55.596Z,4.60
2022-12-27T00:26:23.764Z,3.97
2022-12-27T00:28:50.566Z,4.30
2022-12-27T00:36:11.751Z,3.83
2022-12-27T00:38:38.560Z,3.90
2022-12-27T00:41:07.156Z,3.35
2022-12-27T00:43:33.848Z,3.42
2022-12-27T00:50:57.224Z,5.10
2022-12-27T00:53:23.990Z,4.35
2022-12-27T00:55:50.729Z,3.92
2022-12-27T00:58:17.390Z,3.30
2022-12-27T01:00:44.363Z,2.67
2022-12-27T01:03:11.251Z,3.38
2022-12-27T01:05:39.051Z,2.53
2022-12-27T01:08:05.819Z,3.35
2022-12-27T01:10:33.305Z,2.85
2022-12-27T01:13:03.484Z,2.63
2022-12-27T01:20:21.744Z,3.20
2022-12-27T01:25:16.522Z,3.20
2022-12-27T01:27:43.275Z,2.97
2022-12-27T01:37:29.941Z,2.88
2022-12-27T01:39:57.033Z,2.90
2022-12-27T01:47:58.442Z,2.80
2022-12-27T01:50:30.431Z,3.03
2022-12-27T01:53:01.559Z,3.28
2022-12-27T01:55:33.713Z,2.78
2022-12-27T01:58:03.475Z,2.78
2022-12-27T02:00:30.178Z,2.70
2022-12-27T02:02:57.575Z,2.10
2022-12-27T02:07:59.536Z,2.17
2022-12-27T02:12:53.215Z,3.35
2022-12-27T02:15:20.047Z,2.53
2022-12-27T02:17:46.780Z,2.30
2022-12-27T02:20:18.454Z,2.90
2022-12-27T02:23:16.027Z,2.58
2022-12-27T02:26:01.414Z,2.10
2022-12-27T02:28:48.279Z,2.25
2022-12-27T02:31:35.209Z,1.70
2022-12-27T02:36:31.717Z,3.17
2022-12-27T02:39:00.739Z,2.42
2022-12-27T02:41:46.259Z,2.28
2022-12-27T02:44:31.804Z,2.90
2022-12-27T02:47:16.873Z,2.97
2022-12-27T02:50:02.817Z,2.67
2022-12-27T02:52:54.155Z,2.23
2022-12-27T02:55:39.069Z,2.08
2022-12-27T03:06:35.794Z,2.45
2022-12-27T03:09:34.400Z,2.50
2022-12-27T03:12:21.920Z,2.10
2022-12-27T03:15:09.061Z,2.67
2022-12-27T03:17:39.939Z,2.22
2022-12-27T03:20:28.455Z,2.85
2022-12-27T03:23:30.908Z,3.15
2022-12-27T03:25:58.375Z,2.10
2022-12-27T03:28:45.556Z,2.58
2022-12-27T03:31:47.052Z,2.20
2022-12-27T03:34:36.095Z,2.25
2022-12-27T03:37:29.693Z,2.22
2022-12-27T03:43:18.085Z,2.20
2022-12-27T03:46:09.529Z,2.80
2022-12-27T03:51:06.334Z,2.25
2022-12-27T03:53:36.192Z,2.60
2022-12-27T03:56:03.599Z,2.35
2022-12-27T03:58:30.332Z,5.22
2022-12-27T04:00:56.968Z,5.30
2022-12-27T04:03:24.569Z,7.00
2022-12-27T04:05:51.274Z,6.10
2022-12-27T04:08:36.352Z,5.47
2022-12-27T04:11:21.333Z,3.88
2022-12-27T04:16:50.444Z,3.78
2022-12-27T04:27:47.572Z,4.43
2022-12-27T04:30:33.021Z,3.72
2022-12-27T04:33:18.081Z,3.55
2022-12-27T04:54:35.967Z,3.35
2022-12-27T04:57:02.773Z,3.33
2022-12-27T04:59:47.723Z,3.30
2022-12-27T05:02:15.165Z,3.28
2022-12-27T05:04:42.218Z,3.35
2022-12-27T05:10:14.782Z,3.67
2022-12-27T05:13:00.237Z,3.72
2022-12-27T05:20:48.895Z,2.90
2022-12-27T05:23:34.003Z,2.97
2022-12-27T05:28:26.525Z,3.10
2022-12-27T05:30:53.193Z,2.80
2022-12-27T05:33:19.869Z,3.25
2022-12-27T05:35:46.574Z,3.28
2022-12-27T05:38:13.190Z,2.95
2022-12-27T05:43:05.260Z,2.38
2022-12-27T05:45:32.872Z,2.28
2022-12-27T05:48:00.035Z,2.40
2022-12-27T05:50:26.832Z,2.60
2022-12-27T05:53:07.261Z,2.78
2022-12-27T05:55:34.003Z,2.75
2022-12-27T05:58:00.602Z,2.60
2022-12-27T06:05:18.281Z,2.75
2022-12-27T06:07:45.002Z,2.72
2022-12-27T06:10:12.022Z,2.38
2022-12-27T06:12:38.646Z,2.90
2022-12-27T06:17:31.754Z,2.60
2022-12-27T06:19:58.651Z,2.45
2022-12-27T06:22:25.329Z,2.47
2022-12-27T06:24:52.011Z,2.60
2022-12-27T06:27:18.725Z,2.67
2022-12-27T06:29:45.393Z,2.20
2022-12-27T06:32:12.086Z,2.33
2022-12-27T06:34:38.750Z,2.70
2022-12-27T06:37:05.433Z,2.40
2022-12-27T06:39:32.200Z,3.25
2022-12-27T06:41:58.875Z,3.10
2022-12-27T06:44:25.872Z,2.78
2022-12-27T06:46:52.554Z,2.92
2022-12-27T06:49:19.297Z,3.28
2022-12-27T06:51:45.883Z,2.63
2022-12-27T06:54:12.571Z,2.78
2022-12-27T06:56:39.177Z,2.38
2022-12-27T06:59:05.902Z,3.15
2022-12-27T07:01:32.626Z,2.83
2022-12-27T07:03:59.863Z,1.95
2022-12-27T07:08:53.048Z,3.00
2022-12-27T07:11:20.784Z,2.30
2022-12-27T07:13:50.568Z,2.40
2022-12-27T07:16:19.243Z,2.28
2022-12-27T07:18:47.690Z,2.38
2022-12-27T07:23:44.815Z,2.35
2022-12-27T07:26:22.009Z,2.15
2022-12-27T07:28:48.729Z,2.25
2022-12-27T07:31:16.572Z,2.40
2022-12-27T07:33:43.942Z,2.50
2022-12-27T07:36:14.075Z,2.03
2022-12-27T07:38:40.899Z,1.95
2022-12-27T07:46:04.201Z,2.60
2022-12-27T07:48:30.927Z,2.42
2022-12-27T07:50:57.574Z,2.45
2022-12-27T07:53:24.545Z,2.22
2022-12-27T07:58:18.323Z,2.28
2022-12-27T08:00:48.695Z,2.20
2022-12-27T08:13:10.683Z,2.83
2022-12-27T08:15:38.033Z,2.50
2022-12-27T08:18:04.889Z,2.78
2022-12-27T08:20:31.639Z,2.55
2022-12-27T08:22:58.383Z,2.55
2022-12-27T08:25:25.191Z,2.50
2022-12-27T08:27:51.802Z,2.60
2022-12-27T08:32:44.200Z,2.70
2022-12-27T08:35:50.300Z,2.58
2022-12-27T08:40:23.027Z,2.05
2022-12-27T08:42:49.666Z,2.13
2022-12-27T08:55:22.999Z,2.50
2022-12-27T08:57:51.136Z,3.15
2022-12-27T09:05:08.806Z,3.28
2022-12-27T09:07:35.532Z,2.80
2022-12-27T09:10:02.141Z,3.00
2022-12-27T09:12:28.751Z,3.20
2022-12-27T09:17:21.861Z,3.92
2022-12-27T09:19:48.720Z,3.35
2022-12-27T09:27:06.376Z,2.83
2022-12-27T09:29:33.153Z,2.85
2022-12-27T09:31:59.894Z,3.00
2022-12-27T09:34:33.010Z,2.42
2022-12-27T09:39:26.594Z,4.00
2022-12-27T09:47:25.323Z,2.13
2022-12-27T09:50:02.958Z,2.72
2022-12-27T09:57:43.120Z,3.42
2022-12-27T10:00:34.612Z,3.60
2022-12-27T10:03:06.022Z,2.97
2022-12-27T10:05:34.401Z,2.95
2022-12-27T10:08:03.878Z,2.63
2022-12-27T10:15:52.480Z,1.92
2022-12-27T10:18:28.395Z,2.03
2022-12-27T10:21:00.644Z,2.17
2022-12-27T10:23:32.565Z,1.80
2022-12-27T10:26:01.201Z,2.55
2022-12-27T10:28:34.014Z,2.25
2022-12-27T10:33:29.520Z,2.63
2022-12-27T10:35:56.666Z,2.05
2022-12-27T10:41:08.684Z,1.98
2022-12-27T10:43:42.384Z,1.83
2022-12-27T10:46:32.132Z,1.90
2022-12-27T10:51:35.055Z,2.30
2022-12-27T10:54:04.171Z,2.15
2022-12-27T10:56:32.205Z,2.30
2022-12-27T10:59:10.161Z,2.38
2022-12-27T11:06:38.445Z,2.13
2022-12-27T11:09:23.609Z,2.10
2022-12-27T11:11:50.210Z,2.33
2022-12-27T11:14:18.832Z,1.90
2022-12-27T11:16:46.266Z,1.80
2022-12-27T11:24:16.982Z,2.53
2022-12-27T11:29:21.749Z,2.13
2022-12-27T11:31:48.785Z,1.77
2022-12-27T11:36:44.240Z,1.90
2022-12-27T11:39:30.847Z,2.10
2022-12-27T11:41:58.160Z,2.28
2022-12-27T11:44:29.654Z,1.98
2022-12-27T11:47:28.077Z,2.13
2022-12-27T11:50:17.790Z,2.08
2022-12-27T12:00:31.397Z,2.95
2022-12-27T12:03:08.801Z,2.17
2022-12-27T12:05:47.416Z,2.42
2022-12-27T12:08:22.698Z,2.58
2022-12-27T12:13:28.893Z,1.92
2022-12-27T12:15:58.710Z,1.92
2022-12-27T12:18:43.893Z,2.50
2022-12-27T12:21:22.619Z,1.45
2022-12-27T12:24:07.811Z,1.95
2022-12-27T12:26:40.344Z,1.92
2022-12-27T12:29:17.518Z,1.77
2022-12-27T12:31:56.472Z,2.20
2022-12-27T12:34:29.326Z,2.22
2022-12-27T12:36:58.845Z,2.47
2022-12-27T12:39:32.459Z,1.95
2022-12-27T12:47:21.468Z,1.80
2022-12-27T12:49:48.141Z,1.80
2022-12-27T13:13:11.662Z,2.10
2022-12-27T13:15:55.088Z,2.40
2022-12-27T13:18:30.753Z,2.13
2022-12-27T13:21:07.328Z,2.10
2022-12-27T13:26:00.444Z,2.38
2022-12-27T13:31:14.137Z,2.78
2022-12-27T13:36:18.181Z,2.15
2022-12-27T13:41:44.125Z,2.47
2022-12-27T13:44:10.831Z,1.83
2022-12-27T13:46:43.636Z,1.88
2022-12-27T13:51:43.969Z,2.00
2022-12-27T13:54:10.790Z,2.03
2022-12-27T13:59:30.551Z,1.88
2022-12-27T14:07:14.982Z,1.85
2022-12-27T14:09:52.048Z,2.37
2022-12-27T14:14:57.751Z,2.55
2022-12-27T14:17:30.760Z,2.13
2022-12-27T14:20:16.163Z,2.05
2022-12-27T14:25:32.296Z,2.53
2022-12-27T14:27:58.967Z,2.63
2022-12-27T14:30:44.530Z,2.20
2022-12-27T14:35:51.472Z,2.45
2022-12-27T14:43:17.815Z,1.92
2022-12-27T14:45:58.407Z,2.28
2022-12-27T14:48:43.139Z,2.55
2022-12-27T14:53:56.725Z,2.50
2022-12-27T14:56:33.167Z,2.60
2022-12-27T15:01:39.898Z,2.22
2022-12-27T15:04:29.635Z,2.50
2022-12-27T15:07:11.220Z,2.70
2022-12-27T15:09:37.799Z,2.63
2022-12-27T15:12:19.657Z,3.08
2022-12-27T15:15:18.275Z,2.95
2022-12-27T15:18:03.568Z,3.40
2022-12-27T15:20:42.726Z,3.20
2022-12-27T15:23:15.253Z,2.88
2022-12-27T15:26:00.536Z,3.00
2022-12-27T15:28:45.590Z,3.40
2022-12-27T15:33:37.627Z,3.65
2022-12-27T15:36:08.507Z,3.55
2022-12-27T15:56:41.416Z,5.30
2022-12-27T15:59:26.732Z,5.18
2022-12-27T16:02:11.831Z,4.68
2022-12-27T16:04:46.893Z,4.32
2022-12-27T16:07:34.887Z,5.20
2022-12-27T16:10:21.824Z,5.97
2022-12-27T16:26:02.311Z,4.47
2022-12-27T16:31:33.389Z,4.28
2022-12-27T16:34:10.389Z,4.40
2022-12-27T16:36:42.927Z,5.10
2022-12-27T16:39:12.415Z,3.63
2022-12-27T16:42:05.701Z,4.40
2022-12-27T16:44:54.346Z,3.92
2022-12-27T16:50:14.333Z,4.38
2022-12-27T16:52:50.281Z,4.57
2022-12-27T16:55:16.928Z,3.25
2022-12-27T16:58:03.581Z,3.83
2022-12-27T17:00:39.803Z,3.90
2022-12-27T17:05:34.461Z,3.85
2022-12-27T17:13:29.148Z,4.82
2022-12-27T17:16:11.392Z,3.88
2022-12-27T17:21:29.675Z,4.32
2022-12-27T17:26:34.738Z,3.72
2022-12-27T17:29:24.776Z,3.05
2022-12-27T17:32:09.600Z,2.88
2022-12-27T17:45:03.596Z,2.42
2022-12-27T17:47:33.320Z,3.03
2022-12-27T17:50:05.205Z,2.88
2022-12-27T17:52:50.828Z,3.08
2022-12-27T17:55:38.593Z,2.70
2022-12-27T17:58:08.100Z,2.28
2022-12-27T18:00:36.683Z,2.45
2022-12-27T18:05:34.090Z,3.00
2022-12-27T18:08:02.445Z,2.40
2022-12-27T18:10:30.800Z,2.90
2022-12-27T18:12:59.600Z,2.60
2022-12-27T18:15:27.461Z,2.65
2022-12-27T18:17:54.994Z,2.90
2022-12-27T18:20:30.963Z,2.22
2022-12-27T18:23:00.834Z,2.65
2022-12-27T18:25:29.055Z,2.65
2022-12-27T18:27:59.872Z,2.70
2022-12-27T18:32:54.494Z,4.05
2022-12-27T18:35:24.358Z,4.55
2022-12-27T18:37:52.461Z,3.38
2022-12-27T18:40:20.863Z,2.90
2022-12-27T18:42:51.530Z,2.78
2022-12-27T18:55:10.926Z,2.85
2022-12-27T19:02:41.473Z,2.92
2022-12-27T19:07:54.363Z,2.72
2022-12-27T19:15:18.592Z,2.80
2022-12-27T19:20:20.224Z,2.40
2022-12-27T19:22:46.938Z,2.85
2022-12-27T19:25:19.590Z,3.35
2022-12-27T19:28:05.103Z,3.22
2022-12-27T19:30:37.587Z,3.20
2022-12-27T19:35:35.454Z,3.10
2022-12-27T19:38:02.545Z,3.50
2022-12-27T19:42:54.603Z,3.20
2022-12-27T19:45:21.800Z,3.10
2022-12-27T19:50:15.492Z,2.92
2022-12-27T19:52:42.403Z,3.40
2022-12-27T19:55:11.853Z,2.70
2022-12-27T19:57:40.633Z,3.63
2022-12-27T20:00:18.830Z,3.35
2022-12-27T20:02:46.011Z,3.95
2022-12-27T20:05:12.969Z,2.63
2022-12-27T20:07:39.878Z,2.60
2022-12-27T20:10:07.323Z,2.30
2022-12-27T20:12:34.166Z,2.13
2022-12-27T20:17:26.374Z,2.88
2022-12-27T20:19:53.513Z,2.90
2022-12-27T20:24:47.327Z,3.20
2022-12-27T20:27:16.476Z,3.50
2022-12-27T20:29:44.205Z,3.60
2022-12-27T20:32:10.966Z,3.80
2022-12-27T20:34:37.641Z,4.38
2022-12-27T20:37:04.649Z,4.63
2022-12-27T20:39:31.330Z,5.20
2022-12-27T20:41:57.957Z,4.25
2022-12-27T20:46:50.815Z,3.60
2022-12-27T20:49:17.502Z,3.92
2022-12-27T20:54:10.530Z,3.75
2022-12-27T20:56:37.337Z,4.05
2022-12-27T20:59:04.181Z,3.13
2022-12-27T21:01:30.950Z,3.17
2022-12-27T21:03:57.881Z,2.92
2022-12-27T21:11:18.970Z,2.58
2022-12-27T21:13:46.308Z,2.53
2022-12-27T21:16:14.346Z,2.25
2022-12-27T21:18:41.220Z,3.80
2022-12-27T21:21:09.181Z,4.43
2022-12-27T21:23:36.577Z,3.33
2022-12-27T21:26:08.968Z,2.70
2022-12-27T21:33:27.891Z,2.33
2022-12-27T21:40:57.457Z,2.22
2022-12-27T21:43:24.267Z,2.38
2022-12-27T21:45:50.979Z,2.67
2022-12-27T21:50:43.142Z,2.25
2022-12-27T21:53:09.845Z,2.65
2022-12-27T21:55:36.540Z,2.58
2022-12-27T21:58:03.338Z,2.50
2022-12-27T22:02:55.747Z,2.00
2022-12-27T22:05:22.446Z,2.20
2022-12-27T22:07:49.084Z,2.15
2022-12-27T22:13:37.588Z,2.15
2022-12-27T22:16:05.537Z,2.20
2022-12-27T22:18:33.436Z,1.80
2022-12-27T22:25:55.162Z,2.70
2022-12-27T22:30:47.647Z,2.22
2022-12-27T22:33:15.040Z,1.98
2022-12-27T22:35:41.918Z,1.90
2022-12-27T22:38:08.721Z,2.30
2022-12-27T22:40:45.793Z,1.95
2022-12-27T22:43:16.979Z,2.40
2022-12-27T22:45:47.612Z,1.92
2022-12-27T22:50:42.523Z,1.83
2022-12-27T22:53:09.205Z,2.08
2022-12-27T22:55:39.878Z,1.95
2022-12-27T22:58:06.622Z,1.48
2022-12-27T23:00:33.283Z,2.10
2022-12-27T23:08:06.091Z,1.75
2022-12-27T23:10:33.752Z,1.88
2022-12-27T23:13:00.412Z,2.00
2022-12-27T23:15:27.082Z,2.25
2022-12-27T23:17:53.723Z,2.60
2022-12-27T23:20:20.521Z,2.42
2022-12-27T23:22:47.110Z,1.95
2022-12-27T23:27:39.271Z,2.20
2022-12-27T23:30:06.291Z,2.00
2022-12-27T23:37:23.776Z,2.40
2022-12-27T23:42:16.052Z,2.45
2022-12-27T23:44:42.925Z,2.58
2022-12-27T23:47:09.560Z,2.25
2022-12-27T23:49:36.258Z,2.40
2022-12-27T23:54:29.139Z,2.10
2022-12-27T23:56:58.600Z,2.42
